sensor_id;sensor_type;location;lat;lon;timestamp;pressure;altitude;pressure_sealevel;temperature;humidity
12360;BME280;6244;51.460;7.090;2023-11-21T00:00:41;100074.84;;;8.16;88.49
12360;BME280;6244;51.460;7.090;2023-11-21T00:05:37;100068.94;;;8.12;88.88
12360;BME280;6244;51.460;7.090;2023-11-21T00:10:34;100080.72;;;8.21;89.20
12360;BME280;6244;51.460;7.090;2023-11-21T00:15:34;100076.41;;;8.37;89.37
12360;BME280;6244;51.460;7.090;2023-11-21T00:20:31;100079.41;;;8.47;89.51
12360;BME280;6244;51.460;7.090;2023-11-21T00:25:27;100086.47;;;8.28;89.78
12360;BME280;6244;51.460;7.090;2023-11-21T00:30:24;100084.94;;;8.06;91.16
12360;BME280;6244;51.460;7.090;2023-11-21T00:35:22;100095.00;;;7.60;93.49
12360;BME280;6244;51.460;7.090;2023-11-21T00:40:18;100091.00;;;7.53;96.76
12360;BME280;6244;51.460;7.090;2023-11-21T00:45:16;100094.06;;;7.44;98.51
12360;BME280;6244;51.460;7.090;2023-11-21T00:50:12;100084.41;;;7.63;100.00
12360;BME280;6244;51.460;7.090;2023-11-21T00:55:10;100086.75;;;7.70;99.20
12360;BME280;6244;51.460;7.090;2023-11-21T01:00:08;100088.19;;;7.75;99.42
12360;BME280;6244;51.460;7.090;2023-11-21T01:05:08;100092.16;;;7.84;100.00
12360;BME280;6244;51.460;7.090;2023-11-21T01:10:06;100086.69;;;7.88;98.89
12360;BME280;6244;51.460;7.090;2023-11-21T01:15:06;100095.88;;;7.42;98.92
12360;BME280;6244;51.460;7.090;2023-11-21T01:20:04;100101.50;;;7.52;100.00
12360;BME280;6244;51.460;7.090;2023-11-21T01:25:06;100110.19;;;7.52;100.00
12360;BME280;6244;51.460;7.090;2023-11-21T01:30:05;100121.47;;;7.53;100.00
12360;BME280;6244;51.460;7.090;2023-11-21T01:35:03;100114.47;;;7.53;99.58
12360;BME280;6244;51.460;7.090;2023-11-21T01:40:01;100121.13;;;7.60;100.00
12360;BME280;6244;51.460;7.090;2023-11-21T01:45:00;100117.81;;;7.57;99.84
12360;BME280;6244;51.460;7.090;2023-11-21T01:50:01;100119.28;;;7.62;100.00
12360;BME280;6244;51.460;7.090;2023-11-21T01:55:00;100113.03;;;7.84;99.07
12360;BME280;6244;51.460;7.090;2023-11-21T01:59:58;100115.78;;;7.81;97.28
12360;BME280;6244;51.460;7.090;2023-11-21T02:05:07;100127.22;;;7.78;97.56
12360;BME280;6244;51.460;7.090;2023-11-21T02:10:06;100128.19;;;7.58;98.25
12360;BME280;6244;51.460;7.090;2023-11-21T02:15:03;100132.53;;;7.77;97.61
12360;BME280;6244;51.460;7.090;2023-11-21T02:20:00;100131.25;;;7.66;96.88
12360;BME280;6244;51.460;7.090;2023-11-21T02:24:58;100136.28;;;7.52;98.11
12360;BME280;6244;51.460;7.090;2023-11-21T02:29:55;100143.28;;;7.71;98.85
12360;BME280;6244;51.460;7.090;2023-11-21T02:34:51;100156.06;;;7.58;98.93
12360;BME280;6244;51.460;7.090;2023-11-21T02:39:50;100156.34;;;7.71;97.99
12360;BME280;6244;51.460;7.090;2023-11-21T02:44:48;100153.56;;;7.74;98.39
12360;BME280;6244;51.460;7.090;2023-11-21T02:49:44;100160.31;;;7.97;97.21
12360;BME280;6244;51.460;7.090;2023-11-21T02:54:41;100168.09;;;8.15;96.37
12360;BME280;6244;51.460;7.090;2023-11-21T02:59:38;100165.03;;;8.24;95.86
12360;BME280;6244;51.460;7.090;2023-11-21T03:04:36;100179.56;;;8.30;95.48
12360;BME280;6244;51.460;7.090;2023-11-21T03:09:32;100178.38;;;8.01;94.30
12360;BME280;6244;51.460;7.090;2023-11-21T03:14:29;100170.94;;;8.11;95.52
12360;BME280;6244;51.460;7.090;2023-11-21T03:19:26;100173.41;;;8.14;95.90
12360;BME280;6244;51.460;7.090;2023-11-21T03:24:23;100174.56;;;8.08;95.86
12360;BME280;6244;51.460;7.090;2023-11-21T03:29:20;100174.84;;;8.02;95.51
12360;BME280;6244;51.460;7.090;2023-11-21T03:34:22;100187.69;;;8.07;95.55
12360;BME280;6244;51.460;7.090;2023-11-21T03:39:19;100197.22;;;8.08;95.49
12360;BME280;6244;51.460;7.090;2023-11-21T03:44:18;100208.91;;;8.18;95.49
12360;BME280;6244;51.460;7.090;2023-11-21T03:49:15;100214.97;;;8.18;95.05
12360;BME280;6244;51.460;7.090;2023-11-21T03:54:11;100220.28;;;8.17;94.63
12360;BME280;6244;51.460;7.090;2023-11-21T03:59:09;100222.13;;;8.15;94.48
12360;BME280;6244;51.460;7.090;2023-11-21T04:04:08;100231.13;;;7.90;94.37
12360;BME280;6244;51.460;7.090;2023-11-21T04:09:04;100231.69;;;7.78;95.75
12360;BME280;6244;51.460;7.090;2023-11-21T04:14:01;100225.97;;;7.89;96.24
12360;BME280;6244;51.460;7.090;2023-11-21T04:18:57;100224.41;;;8.04;96.51
12360;BME280;6244;51.460;7.090;2023-11-21T04:23:55;100238.13;;;7.90;96.02
12360;BME280;6244;51.460;7.090;2023-11-21T04:28:52;100233.31;;;7.81;96.13
12360;BME280;6244;51.460;7.090;2023-11-21T04:33:48;100244.69;;;7.80;96.91
12360;BME280;6244;51.460;7.090;2023-11-21T04:38:45;100237.97;;;7.93;96.47
12360;BME280;6244;51.460;7.090;2023-11-21T04:43:43;100243.53;;;8.04;96.34
12360;BME280;6244;51.460;7.090;2023-11-21T04:48:39;100242.56;;;8.07;96.44
12360;BME280;6244;51.460;7.090;2023-11-21T04:53:36;100245.88;;;7.91;96.64
12360;BME280;6244;51.460;7.090;2023-11-21T04:58:32;100258.88;;;7.93;97.27
12360;BME280;6244;51.460;7.090;2023-11-21T05:03:30;100261.81;;;8.04;97.46
12360;BME280;6244;51.460;7.090;2023-11-21T05:08:27;100272.44;;;7.82;98.04
12360;BME280;6244;51.460;7.090;2023-11-21T05:13:23;100270.31;;;7.90;97.92
12360;BME280;6244;51.460;7.090;2023-11-21T05:18:22;100271.53;;;7.83;97.67
12360;BME280;6244;51.460;7.090;2023-11-21T05:23:23;100268.03;;;7.64;97.25
12360;BME280;6244;51.460;7.090;2023-11-21T05:28:20;100280.59;;;7.56;98.10
12360;BME280;6244;51.460;7.090;2023-11-21T05:33:16;100292.53;;;7.22;99.63
12360;BME280;6244;51.460;7.090;2023-11-21T05:38:13;100299.75;;;7.36;100.00
12360;BME280;6244;51.460;7.090;2023-11-21T05:43:10;100303.59;;;7.66;100.00
12360;BME280;6244;51.460;7.090;2023-11-21T05:48:07;100307.91;;;7.68;98.89
12360;BME280;6244;51.460;7.090;2023-11-21T05:53:04;100320.88;;;7.89;98.49
12360;BME280;6244;51.460;7.090;2023-11-21T05:58:00;100319.75;;;7.95;97.12
12360;BME280;6244;51.460;7.090;2023-11-21T06:02:58;100331.81;;;7.98;97.06
12360;BME280;6244;51.460;7.090;2023-11-21T06:07:55;100332.97;;;8.11;96.84
12360;BME280;6244;51.460;7.090;2023-11-21T06:12:54;100344.03;;;8.16;96.71
12360;BME280;6244;51.460;7.090;2023-11-21T06:17:51;100350.19;;;8.15;96.27
12360;BME280;6244;51.460;7.090;2023-11-21T06:22:50;100359.63;;;8.17;96.41
12360;BME280;6244;51.460;7.090;2023-11-21T06:27:48;100368.19;;;8.02;96.43
12360;BME280;6244;51.460;7.090;2023-11-21T06:32:44;100375.09;;;8.03;96.61
12360;BME280;6244;51.460;7.090;2023-11-21T06:37:41;100380.22;;;8.06;96.14
12360;BME280;6244;51.460;7.090;2023-11-21T06:42:44;100386.53;;;8.01;96.04
12360;BME280;6244;51.460;7.090;2023-11-21T06:47:42;100392.72;;;7.79;96.64
12360;BME280;6244;51.460;7.090;2023-11-21T06:52:38;100399.69;;;7.79;97.23
12360;BME280;6244;51.460;7.090;2023-11-21T06:57:35;100396.78;;;7.66;98.37
12360;BME280;6244;51.460;7.090;2023-11-21T07:02:33;100416.50;;;7.73;99.36
12360;BME280;6244;51.460;7.090;2023-11-21T07:07:29;100422.13;;;7.84;99.19
12360;BME280;6244;51.460;7.090;2023-11-21T07:12:26;100423.13;;;7.80;98.25
12360;BME280;6244;51.460;7.090;2023-11-21T07:17:23;100427.25;;;7.65;99.05
12360;BME280;6244;51.460;7.090;2023-11-21T07:22:21;100434.31;;;7.63;99.46
12360;BME280;6244;51.460;7.090;2023-11-21T07:27:17;100442.41;;;7.37;100.00
12360;BME280;6244;51.460;7.090;2023-11-21T07:32:14;100450.38;;;7.54;100.00
12360;BME280;6244;51.460;7.090;2023-11-21T07:37:11;100443.13;;;7.61;100.00
12360;BME280;6244;51.460;7.090;2023-11-21T07:42:09;100442.22;;;7.62;100.00
12360;BME280;6244;51.460;7.090;2023-11-21T07:47:06;100442.53;;;7.54;100.00
12360;BME280;6244;51.460;7.090;2023-11-21T07:52:03;100446.19;;;7.50;100.00
12360;BME280;6244;51.460;7.090;2023-11-21T07:56:59;100448.66;;;7.53;100.00
12360;BME280;6244;51.460;7.090;2023-11-21T08:01:57;100462.63;;;7.52;100.00
12360;BME280;6244;51.460;7.090;2023-11-21T08:06:54;100478.25;;;7.54;100.00
12360;BME280;6244;51.460;7.090;2023-11-21T08:11:51;100491.97;;;7.59;100.00
12360;BME280;6244;51.460;7.090;2023-11-21T08:16:48;100512.78;;;7.60;100.00
12360;BME280;6244;51.460;7.090;2023-11-21T08:21:46;100516.31;;;7.59;100.00
12360;BME280;6244;51.460;7.090;2023-11-21T08:26:42;100539.13;;;7.54;100.00
12360;BME280;6244;51.460;7.090;2023-11-21T08:31:39;100547.09;;;7.73;100.00
12360;BME280;6244;51.460;7.090;2023-11-21T08:36:36;100550.56;;;7.74;100.00
12360;BME280;6244;51.460;7.090;2023-11-21T08:41:34;100558.00;;;8.03;100.00
12360;BME280;6244;51.460;7.090;2023-11-21T08:46:32;100554.44;;;8.26;100.00
12360;BME280;6244;51.460;7.090;2023-11-21T08:51:29;100553.78;;;8.41;100.00
12360;BME280;6244;51.460;7.090;2023-11-21T08:56:25;100550.44;;;8.58;100.00
12360;BME280;6244;51.460;7.090;2023-11-21T09:01:23;100561.28;;;8.69;100.00
12360;BME280;6244;51.460;7.090;2023-11-21T09:06:20;100566.66;;;8.85;100.00
12360;BME280;6244;51.460;7.090;2023-11-21T09:11:16;100571.47;;;8.75;100.00
12360;BME280;6244;51.460;7.090;2023-11-21T09:16:13;100580.19;;;8.95;100.00
12360;BME280;6244;51.460;7.090;2023-11-21T09:21:12;100588.78;;;8.78;100.00
12360;BME280;6244;51.460;7.090;2023-11-21T09:26:08;100586.38;;;8.73;100.00
12360;BME280;6244;51.460;7.090;2023-11-21T09:31:05;100590.56;;;8.77;100.00
12360;BME280;6244;51.460;7.090;2023-11-21T09:36:04;100606.22;;;8.98;100.00
12360;BME280;6244;51.460;7.090;2023-11-21T09:41:04;100611.75;;;9.10;100.00
12360;BME280;6244;51.460;7.090;2023-11-21T09:46:02;100621.91;;;8.98;99.87
12360;BME280;6244;51.460;7.090;2023-11-21T09:50:59;100612.59;;;9.11;100.00
12360;BME280;6244;51.460;7.090;2023-11-21T09:55:59;100612.38;;;9.16;100.00
12360;BME280;6244;51.460;7.090;2023-11-21T10:00:59;100613.16;;;9.18;99.97
12360;BME280;6244;51.460;7.090;2023-11-21T10:05:58;100627.50;;;9.28;99.84
12360;BME280;6244;51.460;7.090;2023-11-21T10:10:56;100621.72;;;9.40;99.76
12360;BME280;6244;51.460;7.090;2023-11-21T10:15:54;100634.66;;;9.24;99.28
12360;BME280;6244;51.460;7.090;2023-11-21T10:20:53;100627.16;;;9.54;99.79
12360;BME280;6244;51.460;7.090;2023-11-21T10:25:50;100627.56;;;9.83;99.87
12360;BME280;6244;51.460;7.090;2023-11-21T10:30:47;100630.59;;;9.92;98.98
12360;BME280;6244;51.460;7.090;2023-11-21T10:35:45;100630.94;;;9.85;97.86
12360;BME280;6244;51.460;7.090;2023-11-21T10:40:47;100637.78;;;9.70;96.62
12360;BME280;6244;51.460;7.090;2023-11-21T10:45:44;100647.34;;;9.52;96.28
12360;BME280;6244;51.460;7.090;2023-11-21T10:50:41;100650.16;;;9.66;97.20
12360;BME280;6244;51.460;7.090;2023-11-21T10:55:38;100654.78;;;9.97;98.13
12360;BME280;6244;51.460;7.090;2023-11-21T11:00:37;100656.47;;;9.98;95.82
12360;BME280;6244;51.460;7.090;2023-11-21T11:05:35;100670.94;;;9.88;94.83
12360;BME280;6244;51.460;7.090;2023-11-21T11:10:32;100672.63;;;9.89;95.57
12360;BME280;6244;51.460;7.090;2023-11-21T11:15:28;100667.41;;;9.89;95.17
12360;BME280;6244;51.460;7.090;2023-11-21T11:20:29;100667.88;;;9.80;94.58
12360;BME280;6244;51.460;7.090;2023-11-21T11:25:38;100666.41;;;9.92;95.55
12360;BME280;6244;51.460;7.090;2023-11-21T11:30:49;100668.31;;;10.07;94.86
12360;BME280;6244;51.460;7.090;2023-11-21T11:35:57;100670.00;;;10.08;94.26
12360;BME280;6244;51.460;7.090;2023-11-21T11:41:01;100675.09;;;10.11;94.87
12360;BME280;6244;51.460;7.090;2023-11-21T11:46:03;100674.63;;;10.20;94.45
12360;BME280;6244;51.460;7.090;2023-11-21T11:51:03;100667.63;;;10.21;93.91
12360;BME280;6244;51.460;7.090;2023-11-21T11:56:25;100682.34;;;10.06;93.42
12360;BME280;6244;51.460;7.090;2023-11-21T12:01:23;100685.81;;;9.88;93.34
12360;BME280;6244;51.460;7.090;2023-11-21T12:06:32;100690.38;;;9.65;93.78
12360;BME280;6244;51.460;7.090;2023-11-21T12:11:30;100703.06;;;9.56;94.26
12360;BME280;6244;51.460;7.090;2023-11-21T12:16:27;100706.94;;;9.47;95.13
12360;BME280;6244;51.460;7.090;2023-11-21T12:21:24;100704.47;;;9.44;95.34
12360;BME280;6244;51.460;7.090;2023-11-21T12:26:23;100695.19;;;9.37;96.33
12360;BME280;6244;51.460;7.090;2023-11-21T12:31:20;100711.75;;;9.37;96.37
12360;BME280;6244;51.460;7.090;2023-11-21T12:36:17;100717.84;;;9.38;96.42
12360;BME280;6244;51.460;7.090;2023-11-21T12:41:15;100726.94;;;9.29;96.69
12360;BME280;6244;51.460;7.090;2023-11-21T12:46:14;100735.47;;;9.34;96.26
12360;BME280;6244;51.460;7.090;2023-11-21T12:51:12;100742.72;;;9.28;95.92
12360;BME280;6244;51.460;7.090;2023-11-21T12:56:11;100747.53;;;9.18;97.17
12360;BME280;6244;51.460;7.090;2023-11-21T13:01:08;100755.50;;;9.15;97.55
12360;BME280;6244;51.460;7.090;2023-11-21T13:06:08;100758.25;;;9.12;97.94
12360;BME280;6244;51.460;7.090;2023-11-21T13:11:05;100757.72;;;9.04;99.04
12360;BME280;6244;51.460;7.090;2023-11-21T13:16:03;100766.66;;;9.00;99.76
12360;BME280;6244;51.460;7.090;2023-11-21T13:21:01;100772.94;;;8.96;100.00
12360;BME280;6244;51.460;7.090;2023-11-21T13:26:01;100778.94;;;8.98;100.00
12360;BME280;6244;51.460;7.090;2023-11-21T13:30:59;100790.19;;;9.00;100.00
12360;BME280;6244;51.460;7.090;2023-11-21T13:35:59;100791.13;;;8.99;100.00
12360;BME280;6244;51.460;7.090;2023-11-21T13:40:57;100796.56;;;8.94;100.00
12360;BME280;6244;51.460;7.090;2023-11-21T13:45:55;100801.81;;;8.93;100.00
12360;BME280;6244;51.460;7.090;2023-11-21T13:50:56;100805.44;;;8.90;100.00
12360;BME280;6244;51.460;7.090;2023-11-21T13:55:54;100811.59;;;8.89;100.00
12360;BME280;6244;51.460;7.090;2023-11-21T14:00:52;100797.91;;;8.82;100.00
12360;BME280;6244;51.460;7.090;2023-11-21T14:05:53;100800.63;;;8.79;100.00
12360;BME280;6244;51.460;7.090;2023-11-21T14:10:51;100818.78;;;8.84;100.00
12360;BME280;6244;51.460;7.090;2023-11-21T14:15:52;100811.94;;;8.80;100.00
12360;BME280;6244;51.460;7.090;2023-11-21T14:20:55;100820.63;;;8.82;100.00
12360;BME280;6244;51.460;7.090;2023-11-21T14:25:52;100829.47;;;8.78;100.00
12360;BME280;6244;51.460;7.090;2023-11-21T14:30:49;100840.94;;;8.75;100.00
12360;BME280;6244;51.460;7.090;2023-11-21T14:35:45;100844.66;;;8.70;100.00
12360;BME280;6244;51.460;7.090;2023-11-21T14:40:43;100847.38;;;8.67;100.00
12360;BME280;6244;51.460;7.090;2023-11-21T14:45:40;100856.06;;;8.67;100.00
12360;BME280;6244;51.460;7.090;2023-11-21T14:50:36;100860.78;;;8.59;100.00
12360;BME280;6244;51.460;7.090;2023-11-21T14:56:09;100881.94;;;8.53;100.00
12360;BME280;6244;51.460;7.090;2023-11-21T15:01:06;100885.53;;;8.50;100.00
12360;BME280;6244;51.460;7.090;2023-11-21T15:06:05;100896.66;;;8.56;100.00
12360;BME280;6244;51.460;7.090;2023-11-21T15:11:15;100906.25;;;8.55;100.00
12360;BME280;6244;51.460;7.090;2023-11-21T15:16:12;100921.56;;;8.42;100.00
12360;BME280;6244;51.460;7.090;2023-11-21T15:21:08;100926.91;;;8.39;100.00
12360;BME280;6244;51.460;7.090;2023-11-21T15:26:07;100931.34;;;8.37;100.00
12360;BME280;6244;51.460;7.090;2023-11-21T15:31:06;100935.81;;;8.34;100.00
12360;BME280;6244;51.460;7.090;2023-11-21T15:36:04;100933.59;;;8.23;100.00
12360;BME280;6244;51.460;7.090;2023-11-21T15:41:04;100937.25;;;8.19;100.00
12360;BME280;6244;51.460;7.090;2023-11-21T15:46:05;100948.03;;;8.10;100.00
12360;BME280;6244;51.460;7.090;2023-11-21T15:51:03;100964.75;;;8.04;100.00
12360;BME280;6244;51.460;7.090;2023-11-21T15:56:00;100973.31;;;8.09;100.00
12360;BME280;6244;51.460;7.090;2023-11-21T16:00:56;100989.06;;;8.08;100.00
12360;BME280;6244;51.460;7.090;2023-11-21T16:05:54;100996.94;;;8.06;100.00
12360;BME280;6244;51.460;7.090;2023-11-21T16:10:51;101006.75;;;8.00;100.00
12360;BME280;6244;51.460;7.090;2023-11-21T16:15:47;101022.00;;;7.87;100.00
12360;BME280;6244;51.460;7.090;2023-11-21T16:20:44;101028.31;;;7.81;100.00
12360;BME280;6244;51.460;7.090;2023-11-21T16:25:42;101045.75;;;7.79;100.00
12360;BME280;6244;51.460;7.090;2023-11-21T16:30:40;101039.19;;;7.68;100.00
12360;BME280;6244;51.460;7.090;2023-11-21T16:35:36;101059.66;;;7.53;99.86
12360;BME280;6244;51.460;7.090;2023-11-21T16:40:34;101082.38;;;7.51;98.94
12360;BME280;6244;51.460;7.090;2023-11-21T16:45:33;101093.56;;;7.55;97.13
12360;BME280;6244;51.460;7.090;2023-11-21T16:50:30;101103.22;;;7.53;95.08
12360;BME280;6244;51.460;7.090;2023-11-21T16:55:26;101117.31;;;7.47;94.05
12360;BME280;6244;51.460;7.090;2023-11-21T17:00:23;101132.25;;;7.42;94.02
12360;BME280;6244;51.460;7.090;2023-11-21T17:05:21;101146.09;;;7.46;93.31
12360;BME280;6244;51.460;7.090;2023-11-21T17:10:17;101159.47;;;7.35;92.11
12360;BME280;6244;51.460;7.090;2023-11-21T17:15:15;101166.56;;;7.30;92.35
12360;BME280;6244;51.460;7.090;2023-11-21T17:20:12;101174.69;;;7.21;92.21
12360;BME280;6244;51.460;7.090;2023-11-21T17:25:10;101194.81;;;7.16;93.12
12360;BME280;6244;51.460;7.090;2023-11-21T17:30:08;101194.91;;;7.13;92.21
12360;BME280;6244;51.460;7.090;2023-11-21T17:35:06;101202.03;;;7.06;91.85
12360;BME280;6244;51.460;7.090;2023-11-21T17:40:03;101205.50;;;7.06;91.52
12360;BME280;6244;51.460;7.090;2023-11-21T17:45:04;101213.53;;;7.00;90.92
12360;BME280;6244;51.460;7.090;2023-11-21T17:50:00;101222.97;;;7.04;90.42
12360;BME280;6244;51.460;7.090;2023-11-21T17:54:57;101230.13;;;6.98;90.02
12360;BME280;6244;51.460;7.090;2023-11-21T17:59:54;101244.06;;;6.97;90.23
12360;BME280;6244;51.460;7.090;2023-11-21T18:04:51;101253.50;;;7.01;89.37
12360;BME280;6244;51.460;7.090;2023-11-21T18:09:48;101260.28;;;7.08;88.73
12360;BME280;6244;51.460;7.090;2023-11-21T18:14:45;101260.34;;;7.05;88.11
12360;BME280;6244;51.460;7.090;2023-11-21T18:19:44;101270.19;;;6.95;88.04
12360;BME280;6244;51.460;7.090;2023-11-21T18:24:41;101271.25;;;6.88;88.09
12360;BME280;6244;51.460;7.090;2023-11-21T18:29:38;101275.56;;;6.89;87.25
12360;BME280;6244;51.460;7.090;2023-11-21T18:34:35;101287.25;;;6.74;87.37
12360;BME280;6244;51.460;7.090;2023-11-21T18:39:31;101304.47;;;6.80;87.01
12360;BME280;6244;51.460;7.090;2023-11-21T18:44:30;101307.03;;;6.82;86.59
12360;BME280;6244;51.460;7.090;2023-11-21T18:49:27;101304.66;;;6.74;86.22
12360;BME280;6244;51.460;7.090;2023-11-21T18:54:24;101309.09;;;6.70;86.57
12360;BME280;6244;51.460;7.090;2023-11-21T18:59:21;101313.66;;;6.61;86.72
12360;BME280;6244;51.460;7.090;2023-11-21T19:04:19;101321.44;;;6.62;86.60
12360;BME280;6244;51.460;7.090;2023-11-21T19:09:19;101323.03;;;6.68;86.93
12360;BME280;6244;51.460;7.090;2023-11-21T19:14:17;101335.22;;;6.67;87.19
12360;BME280;6244;51.460;7.090;2023-11-21T19:19:13;101341.34;;;6.66;86.70
12360;BME280;6244;51.460;7.090;2023-11-21T19:24:11;101348.44;;;6.61;87.44
12360;BME280;6244;51.460;7.090;2023-11-21T19:29:08;101345.06;;;6.56;87.46
12360;BME280;6244;51.460;7.090;2023-11-21T19:34:05;101347.81;;;6.50;87.81
12360;BME280;6244;51.460;7.090;2023-11-21T19:39:01;101358.28;;;6.48;88.19
12360;BME280;6244;51.460;7.090;2023-11-21T19:43:59;101355.69;;;6.48;88.00
12360;BME280;6244;51.460;7.090;2023-11-21T19:48:56;101366.34;;;6.38;89.02
12360;BME280;6244;51.460;7.090;2023-11-21T19:53:55;101370.53;;;6.45;89.28
12360;BME280;6244;51.460;7.090;2023-11-21T19:59:01;101374.81;;;6.47;89.18
12360;BME280;6244;51.460;7.090;2023-11-21T20:03:58;101377.03;;;6.64;89.01
12360;BME280;6244;51.460;7.090;2023-11-21T20:08:57;101387.41;;;6.66;88.78
12360;BME280;6244;51.460;7.090;2023-11-21T20:13:56;101404.78;;;6.67;88.58
12360;BME280;6244;51.460;7.090;2023-11-21T20:18:56;101414.28;;;6.69;88.24
12360;BME280;6244;51.460;7.090;2023-11-21T20:23:55;101425.56;;;6.71;88.21
12360;BME280;6244;51.460;7.090;2023-11-21T20:28:52;101427.44;;;6.65;87.82
12360;BME280;6244;51.460;7.090;2023-11-21T20:33:50;101435.38;;;6.60;88.08
12360;BME280;6244;51.460;7.090;2023-11-21T20:38:54;101437.09;;;6.61;88.25
12360;BME280;6244;51.460;7.090;2023-11-21T20:43:50;101448.28;;;6.65;88.86
12360;BME280;6244;51.460;7.090;2023-11-21T20:48:47;101455.19;;;6.67;89.25
12360;BME280;6244;51.460;7.090;2023-11-21T20:53:47;101464.50;;;6.79;88.68
12360;BME280;6244;51.460;7.090;2023-11-21T20:58:45;101467.88;;;6.84;88.32
12360;BME280;6244;51.460;7.090;2023-11-21T21:03:42;101470.44;;;6.86;87.83
12360;BME280;6244;51.460;7.090;2023-11-21T21:08:40;101466.31;;;6.75;88.53
12360;BME280;6244;51.460;7.090;2023-11-21T21:13:37;101460.16;;;6.78;88.97
12360;BME280;6244;51.460;7.090;2023-11-21T21:18:36;101467.25;;;6.73;89.04
12360;BME280;6244;51.460;7.090;2023-11-21T21:23:32;101469.31;;;6.57;89.22
12360;BME280;6244;51.460;7.090;2023-11-21T21:28:29;101477.13;;;6.57;90.06
12360;BME280;6244;51.460;7.090;2023-11-21T21:33:26;101476.31;;;6.55;89.60
12360;BME280;6244;51.460;7.090;2023-11-21T21:38:24;101477.94;;;6.61;89.46
12360;BME280;6244;51.460;7.090;2023-11-21T21:43:20;101485.81;;;6.59;88.72
12360;BME280;6244;51.460;7.090;2023-11-21T21:48:17;101496.56;;;6.42;88.33
12360;BME280;6244;51.460;7.090;2023-11-21T21:53:13;101511.44;;;6.39;88.93
12360;BME280;6244;51.460;7.090;2023-11-21T21:58:11;101527.81;;;6.44;88.60
12360;BME280;6244;51.460;7.090;2023-11-21T22:03:08;101535.53;;;6.50;88.61
12360;BME280;6244;51.460;7.090;2023-11-21T22:08:04;101546.72;;;6.55;88.76
12360;BME280;6244;51.460;7.090;2023-11-21T22:13:02;101550.94;;;6.62;88.20
12360;BME280;6244;51.460;7.090;2023-11-21T22:18:00;101545.81;;;6.58;88.32
12360;BME280;6244;51.460;7.090;2023-11-21T22:22:56;101558.19;;;6.48;88.23
12360;BME280;6244;51.460;7.090;2023-11-21T22:27:53;101555.72;;;6.40;88.10
12360;BME280;6244;51.460;7.090;2023-11-21T22:32:50;101551.44;;;6.36;88.73
12360;BME280;6244;51.460;7.090;2023-11-21T22:37:48;101553.03;;;6.43;88.83
12360;BME280;6244;51.460;7.090;2023-11-21T22:42:45;101558.25;;;6.43;89.43
12360;BME280;6244;51.460;7.090;2023-11-21T22:47:41;101567.94;;;6.37;89.20
12360;BME280;6244;51.460;7.090;2023-11-21T22:52:38;101562.88;;;6.29;89.24
12360;BME280;6244;51.460;7.090;2023-11-21T22:57:35;101580.34;;;6.24;89.18
12360;BME280;6244;51.460;7.090;2023-11-21T23:02:32;101595.91;;;6.29;89.33
12360;BME280;6244;51.460;7.090;2023-11-21T23:07:29;101598.41;;;6.35;89.11
12360;BME280;6244;51.460;7.090;2023-11-21T23:12:26;101596.81;;;6.26;88.60
12360;BME280;6244;51.460;7.090;2023-11-21T23:17:23;101603.75;;;6.27;87.78
12360;BME280;6244;51.460;7.090;2023-11-21T23:22:22;101614.00;;;6.36;87.04
12360;BME280;6244;51.460;7.090;2023-11-21T23:27:21;101612.06;;;6.47;86.45
12360;BME280;6244;51.460;7.090;2023-11-21T23:32:17;101614.50;;;6.55;85.92
12360;BME280;6244;51.460;7.090;2023-11-21T23:37:16;101631.06;;;6.54;85.42
12360;BME280;6244;51.460;7.090;2023-11-21T23:42:13;101628.63;;;6.43;85.21
12360;BME280;6244;51.460;7.090;2023-11-21T23:47:11;101645.47;;;6.26;85.29
12360;BME280;6244;51.460;7.090;2023-11-21T23:52:08;101641.19;;;6.23;85.43
12360;BME280;6244;51.460;7.090;2023-11-21T23:57:05;101646.31;;;6.28;85.55
